createdAt,value
2023-01-09T01:06:22.810Z,13.07
2023-01-09T01:45:38.663Z,12.60
2023-01-09T02:28:36.673Z,16.00
2023-01-09T02:32:24.169Z,14.00
2023-01-09T02:39:24.378Z,12.03
2023-01-09T02:46:13.382Z,12.33
2023-01-09T02:49:19.758Z,14.83
2023-01-09T02:56:05.717Z,12.93
2023-01-09T03:03:19.072Z,16.23
2023-01-09T03:37:40.757Z,15.67
2023-01-09T03:53:59.794Z,15.80
2023-01-09T03:56:29.263Z,15.43
2023-01-09T03:58:58.275Z,15.57
2023-01-09T04:01:29.164Z,15.80
2023-01-09T04:03:58.383Z,15.03
2023-01-09T04:06:28.101Z,15.83
2023-01-09T04:08:57.398Z,14.60
2023-01-09T04:11:27.050Z,14.53
2023-01-09T04:13:56.309Z,15.20
2023-01-09T04:16:25.539Z,15.00
2023-01-09T04:18:59.618Z,15.33
2023-01-09T04:31:59.439Z,16.20
2023-01-09T04:41:47.042Z,15.70
2023-01-09T04:44:17.040Z,14.53
2023-01-09T04:46:46.330Z,15.00
2023-01-09T04:49:16.036Z,15.00
2023-01-09T04:51:46.315Z,14.80
2023-01-09T04:54:16.591Z,16.13
2023-01-09T04:56:45.408Z,16.60
2023-01-09T04:59:15.225Z,16.10
2023-01-09T05:01:45.187Z,15.97
2023-01-09T05:04:14.588Z,16.03
2023-01-09T05:06:43.767Z,16.73
2023-01-09T05:09:14.213Z,17.03
2023-01-09T05:11:44.483Z,15.33
2023-01-09T05:14:22.891Z,15.10
2023-01-09T05:25:09.160Z,13.33
2023-01-09T05:28:40.939Z,13.57
2023-01-09T05:55:21.314Z,13.87
2023-01-09T06:02:03.887Z,12.60
2023-01-09T06:05:45.379Z,11.30
2023-01-09T06:09:31.069Z,11.53
2023-01-09T06:13:30.818Z,10.60
2023-01-09T06:16:58.712Z,10.27
2023-01-09T06:19:36.095Z,10.97
2023-01-09T06:22:22.440Z,10.80
2023-01-09T06:25:43.987Z,11.37
2023-01-09T06:28:19.126Z,10.57
2023-01-09T06:31:18.434Z,9.20
2023-01-09T06:35:10.355Z,10.00
2023-01-09T06:37:40.468Z,6.10
2023-01-09T06:40:10.638Z,5.77
2023-01-09T06:42:39.567Z,5.40
2023-01-09T06:45:10.132Z,5.47
2023-01-09T06:47:39.307Z,5.47
2023-01-09T06:50:10.936Z,3.63
2023-01-09T06:52:40.094Z,2.67
2023-01-09T06:55:09.639Z,2.13
2023-01-09T06:57:38.079Z,2.00
2023-01-09T07:00:07.683Z,1.60
2023-01-09T07:02:36.199Z,1.43
2023-01-09T07:05:08.773Z,1.50
2023-01-09T07:07:39.631Z,1.10
2023-01-09T07:10:09.787Z,1.10
2023-01-09T07:12:38.355Z,1.00
2023-01-09T07:15:07.805Z,1.20
2023-01-09T07:17:36.403Z,1.20
2023-01-09T07:20:06.073Z,1.33
2023-01-09T07:22:34.890Z,1.43
2023-01-09T07:25:05.172Z,0.90
2023-01-09T07:27:33.596Z,0.87
2023-01-09T07:30:02.341Z,0.70
2023-01-09T07:32:31.085Z,0.70
2023-01-09T07:41:49.016Z,0.77
2023-01-09T07:44:17.977Z,1.20
2023-01-09T07:46:47.055Z,0.70
2023-01-09T07:49:15.695Z,3.27
2023-01-09T07:51:46.227Z,2.03
2023-01-09T07:54:15.069Z,0.80
2023-01-09T07:56:43.735Z,0.87
2023-01-09T07:59:13.781Z,2.63
2023-01-09T08:01:44.207Z,0.97
2023-01-09T08:11:19.625Z,1.13
2023-01-09T08:13:48.196Z,0.90
2023-01-09T08:16:18.008Z,0.70
2023-01-09T08:18:46.940Z,1.30
2023-01-09T08:21:15.389Z,0.90
2023-01-09T08:23:45.869Z,0.97
2023-01-09T08:26:14.420Z,0.83
2023-01-09T08:28:43.589Z,0.40
2023-01-09T08:31:12.224Z,0.43
2023-01-09T08:33:42.659Z,0.57
2023-01-09T08:36:11.197Z,0.40
2023-01-09T08:38:40.008Z,0.40
2023-01-09T08:41:22.373Z,0.40
2023-01-09T08:44:08.867Z,0.50
2023-01-09T08:46:54.538Z,2.47
2023-01-09T08:49:24.795Z,0.90
2023-01-09T08:51:53.673Z,0.80
2023-01-09T08:54:22.052Z,1.27
2023-01-09T08:56:51.087Z,0.83
2023-01-09T08:59:19.815Z,0.80
2023-01-09T09:01:48.369Z,0.53
2023-01-09T09:04:17.042Z,0.50
2023-01-09T09:51:37.284Z,0.90
2023-01-09T09:54:15.103Z,0.70
2023-01-09T10:41:41.532Z,0.67
2023-01-09T10:44:18.326Z,0.40
2023-01-09T10:46:50.849Z,0.60
2023-01-09T10:49:20.030Z,0.50
2023-01-09T10:51:51.495Z,0.50
2023-01-09T10:54:23.780Z,0.70
2023-01-09T10:56:57.513Z,0.40
2023-01-09T10:59:27.190Z,0.60
2023-01-09T11:01:56.489Z,0.57
2023-01-09T11:04:28.551Z,0.60
2023-01-09T11:07:02.046Z,0.40
2023-01-09T11:09:57.846Z,0.90
2023-01-09T11:12:31.559Z,0.53
2023-01-09T11:15:31.537Z,0.60
2023-01-09T11:18:24.346Z,1.33
2023-01-09T11:20:54.646Z,1.20
2023-01-09T11:23:34.483Z,0.87
2023-01-09T11:26:03.992Z,0.50
2023-01-09T11:28:34.087Z,0.80
2023-01-09T11:31:03.848Z,1.10
2023-01-09T11:33:37.187Z,1.37
2023-01-09T11:36:11.031Z,0.70
2023-01-09T11:38:52.454Z,0.60
2023-01-09T11:41:24.144Z,2.43
2023-01-09T11:43:58.986Z,2.20
2023-01-09T11:46:37.208Z,3.33
2023-01-09T11:49:21.331Z,1.93
2023-01-09T11:52:14.751Z,2.00
2023-01-09T11:54:48.725Z,1.73
2023-01-09T11:57:18.030Z,4.07
2023-01-09T12:01:12.285Z,2.00
2023-01-09T12:11:55.278Z,0.90
2023-01-09T12:26:26.780Z,0.93
2023-01-09T12:29:52.778Z,0.70
2023-01-09T12:33:12.040Z,0.90
2023-01-09T12:40:14.814Z,0.80
2023-01-09T12:46:22.305Z,0.70
2023-01-09T12:49:10.271Z,0.60
2023-01-09T12:51:43.822Z,0.70
2023-01-09T12:54:18.207Z,0.70
2023-01-09T15:02:31.158Z,1.50
2023-01-09T17:27:24.929Z,1.40
2023-01-09T17:30:47.812Z,1.17
2023-01-09T18:44:12.506Z,4.00
2023-01-09T18:46:42.172Z,2.60
2023-01-09T18:49:11.398Z,2.27
2023-01-09T18:51:40.704Z,2.40
2023-01-09T18:54:09.835Z,1.57
2023-01-09T18:56:41.557Z,1.97
2023-01-09T19:31:39.748Z,1.20
2023-01-09T19:34:09.125Z,1.30
2023-01-09T19:36:38.887Z,1.50
2023-01-09T19:39:09.110Z,1.30
2023-01-09T19:41:38.169Z,1.87
2023-01-09T19:44:07.626Z,1.93
2023-01-09T19:46:36.639Z,1.93
2023-01-09T19:49:08.181Z,2.73
2023-01-09T19:51:37.936Z,1.67
2023-01-09T20:04:05.136Z,1.30
2023-01-09T20:06:36.715Z,4.33
2023-01-09T20:20:25.140Z,4.23
2023-01-09T20:29:55.374Z,2.53
2023-01-09T20:32:23.835Z,2.50
2023-01-09T20:34:52.425Z,3.03
2023-01-09T20:37:21.013Z,2.90
2023-01-09T20:39:53.022Z,2.10
2023-01-09T20:42:22.063Z,2.73
2023-01-09T20:44:53.602Z,3.17
2023-01-09T20:47:22.834Z,2.20
2023-01-09T20:49:51.673Z,2.53
2023-01-09T20:52:23.096Z,2.70
2023-01-09T20:54:52.941Z,2.30
2023-01-09T20:57:21.901Z,1.90
2023-01-09T20:59:50.304Z,1.80
2023-01-09T21:02:22.332Z,1.70
2023-01-09T21:07:34.002Z,4.23
2023-01-09T21:10:03.938Z,1.63
2023-01-09T21:12:35.770Z,2.07
2023-01-09T21:15:07.382Z,2.53
2023-01-09T21:17:37.776Z,1.70
2023-01-09T21:20:08.772Z,2.10
2023-01-09T21:22:38.611Z,2.60
2023-01-09T21:25:09.485Z,2.70
2023-01-09T21:27:43.158Z,1.80
2023-01-09T21:30:12.330Z,2.90
2023-01-09T21:32:41.199Z,1.97
2023-01-09T21:35:10.771Z,1.90
2023-01-09T21:37:39.812Z,1.90
2023-01-09T21:40:13.815Z,2.90
2023-01-09T21:43:00.220Z,2.10
2023-01-09T21:45:45.275Z,1.40
2023-01-09T21:48:13.804Z,1.97
2023-01-09T22:14:10.561Z,1.80
2023-01-09T22:16:50.824Z,1.50
2023-01-09T22:26:56.690Z,2.70
2023-01-09T22:36:42.194Z,1.50
2023-01-09T22:39:59.124Z,1.90
2023-01-09T22:43:07.601Z,2.17
2023-01-09T22:56:27.388Z,2.10
2023-01-09T22:58:59.922Z,1.37
2023-01-09T23:01:28.480Z,1.70
2023-01-09T23:03:57.876Z,1.47
2023-01-09T23:06:26.487Z,1.43
2023-01-09T23:08:55.336Z,1.23
2023-01-09T23:11:44.174Z,1.40
2023-01-09T23:14:14.631Z,1.97
2023-01-09T23:16:43.916Z,1.30
2023-01-09T23:19:15.656Z,1.10
2023-01-09T23:21:46.070Z,1.37
2023-01-09T23:24:15.665Z,1.10
2023-01-09T23:26:45.929Z,1.33
2023-01-09T23:29:16.034Z,1.23
2023-01-09T23:31:44.413Z,1.40
2023-01-09T23:34:16.048Z,1.30
2023-01-09T23:36:44.721Z,1.73
2023-01-09T23:39:13.776Z,1.50
2023-01-09T23:42:00.421Z,1.20
2023-01-09T23:44:30.163Z,1.00
